sensor_id;sensor_type;location;lat;lon;timestamp;pressure;altitude;pressure_sealevel;temperature;humidity
40930;BME280;26659;47.962;21.652;2022-08-21T00:02:00;99577.22;;;21.82;100.00
40930;BME280;26659;47.962;21.652;2022-08-21T00:04:26;99572.13;;;21.75;100.00
40930;BME280;26659;47.962;21.652;2022-08-21T00:06:52;99579.75;;;21.73;100.00
40930;BME280;26659;47.962;21.652;2022-08-21T00:09:19;99569.41;;;21.70;100.00
40930;BME280;26659;47.962;21.652;2022-08-21T00:11:45;99583.34;;;21.63;100.00
40930;BME280;26659;47.962;21.652;2022-08-21T00:14:12;99576.28;;;21.62;100.00
40930;BME280;26659;47.962;21.652;2022-08-21T00:16:41;99580.91;;;21.62;100.00
40930;BME280;26659;47.962;21.652;2022-08-21T00:19:07;99586.63;;;21.60;100.00
40930;BME280;26659;47.962;21.652;2022-08-21T00:21:34;99581.72;;;21.62;100.00
40930;BME280;26659;47.962;21.652;2022-08-21T00:24:00;99585.56;;;21.61;100.00
40930;BME280;26659;47.962;21.652;2022-08-21T00:26:25;99579.25;;;21.66;100.00
40930;BME280;26659;47.962;21.652;2022-08-21T00:28:52;99574.44;;;21.53;100.00
40930;BME280;26659;47.962;21.652;2022-08-21T00:31:18;99576.34;;;21.57;100.00
40930;BME280;26659;47.962;21.652;2022-08-21T00:33:44;99576.28;;;21.62;100.00
40930;BME280;26659;47.962;21.652;2022-08-21T00:36:10;99580.13;;;21.61;100.00
40930;BME280;26659;47.962;21.652;2022-08-21T00:38:36;99586.47;;;21.47;100.00
40930;BME280;26659;47.962;21.652;2022-08-21T00:41:04;99583.75;;;21.47;100.00
40930;BME280;26659;47.962;21.652;2022-08-21T00:43:32;99585.69;;;21.41;100.00
40930;BME280;26659;47.962;21.652;2022-08-21T00:45:59;99583.69;;;21.52;100.00
40930;BME280;26659;47.962;21.652;2022-08-21T00:48:25;99592.69;;;21.52;100.00
40930;BME280;26659;47.962;21.652;2022-08-21T00:51:25;99579.13;;;21.42;100.00
40930;BME280;26659;47.962;21.652;2022-08-21T00:53:55;99585.97;;;21.39;100.00
40930;BME280;26659;47.962;21.652;2022-08-21T00:56:24;99578.69;;;21.25;100.00
40930;BME280;26659;47.962;21.652;2022-08-21T00:58:49;99571.09;;;21.16;100.00
40930;BME280;26659;47.962;21.652;2022-08-21T01:01:17;99575.47;;;21.12;100.00
40930;BME280;26659;47.962;21.652;2022-08-21T01:03:43;99568.34;;;21.22;100.00
40930;BME280;26659;47.962;21.652;2022-08-21T01:06:10;99569.75;;;21.14;100.00
40930;BME280;26659;47.962;21.652;2022-08-21T01:08:36;99562.16;;;21.06;100.00
40930;BME280;26659;47.962;21.652;2022-08-21T01:11:02;99556.47;;;21.07;100.00
40930;BME280;26659;47.962;21.652;2022-08-21T01:13:30;99563.50;;;21.08;100.00
40930;BME280;26659;47.962;21.652;2022-08-21T01:15:59;99555.38;;;21.03;100.00
40930;BME280;26659;47.962;21.652;2022-08-21T01:18:26;99550.50;;;21.00;100.00
40930;BME280;26659;47.962;21.652;2022-08-21T01:23:34;99552.94;;;21.02;100.00
40930;BME280;26659;47.962;21.652;2022-08-21T01:26:01;99553.47;;;21.04;100.00
40930;BME280;26659;47.962;21.652;2022-08-21T01:28:28;99555.66;;;21.07;100.00
40930;BME280;26659;47.962;21.652;2022-08-21T01:30:57;99554.25;;;21.09;100.00
40930;BME280;26659;47.962;21.652;2022-08-21T01:33:24;99555.94;;;21.00;100.00
40930;BME280;26659;47.962;21.652;2022-08-21T01:35:50;99549.19;;;20.92;100.00
40930;BME280;26659;47.962;21.652;2022-08-21T01:38:16;99542.97;;;20.82;100.00
40930;BME280;26659;47.962;21.652;2022-08-21T01:40:41;99548.13;;;20.83;100.00
40930;BME280;26659;47.962;21.652;2022-08-21T01:43:07;99545.50;;;20.63;100.00
40930;BME280;26659;47.962;21.652;2022-08-21T01:45:32;99546.31;;;20.58;100.00
40930;BME280;26659;47.962;21.652;2022-08-21T01:47:58;99553.66;;;20.58;100.00
40930;BME280;26659;47.962;21.652;2022-08-21T01:50:24;99551.16;;;20.72;100.00
40930;BME280;26659;47.962;21.652;2022-08-21T01:52:50;99545.47;;;20.68;100.00
40930;BME280;26659;47.962;21.652;2022-08-21T01:55:16;99544.44;;;20.59;100.00
40930;BME280;26659;47.962;21.652;2022-08-21T01:57:43;99546.59;;;20.57;100.00
40930;BME280;26659;47.962;21.652;2022-08-21T02:00:12;99550.09;;;20.67;100.00
40930;BME280;26659;47.962;21.652;2022-08-21T02:02:38;99541.47;;;20.55;100.00
40930;BME280;26659;47.962;21.652;2022-08-21T02:05:05;99546.34;;;20.53;100.00
40930;BME280;26659;47.962;21.652;2022-08-21T02:07:43;99554.50;;;20.48;100.00
40930;BME280;26659;47.962;21.652;2022-08-21T02:10:11;99558.81;;;20.54;100.00
40930;BME280;26659;47.962;21.652;2022-08-21T02:12:37;99554.75;;;20.57;100.00
40930;BME280;26659;47.962;21.652;2022-08-21T02:15:04;99546.88;;;20.40;100.00
40930;BME280;26659;47.962;21.652;2022-08-21T02:17:40;99542.59;;;20.24;100.00
40930;BME280;26659;47.962;21.652;2022-08-21T02:20:08;99550.13;;;20.37;100.00
40930;BME280;26659;47.962;21.652;2022-08-21T02:22:34;99550.69;;;20.39;100.00
40930;BME280;26659;47.962;21.652;2022-08-21T02:24:59;99554.50;;;20.38;100.00
40930;BME280;26659;47.962;21.652;2022-08-21T02:27:25;99551.25;;;20.31;100.00
40930;BME280;26659;47.962;21.652;2022-08-21T02:29:51;99543.66;;;20.38;100.00
40930;BME280;26659;47.962;21.652;2022-08-21T02:32:16;99545.78;;;20.46;100.00
40930;BME280;26659;47.962;21.652;2022-08-21T02:34:41;99545.25;;;20.49;100.00
40930;BME280;26659;47.962;21.652;2022-08-21T02:37:07;99541.44;;;20.45;100.00
40930;BME280;26659;47.962;21.652;2022-08-21T02:39:32;99534.97;;;20.31;100.00
40930;BME280;26659;47.962;21.652;2022-08-21T02:41:58;99534.16;;;20.25;100.00
40930;BME280;26659;47.962;21.652;2022-08-21T02:44:23;99534.94;;;20.26;100.00
40930;BME280;26659;47.962;21.652;2022-08-21T02:46:48;99543.91;;;20.31;100.00
40930;BME280;26659;47.962;21.652;2022-08-21T02:49:14;99542.00;;;20.37;100.00
40930;BME280;26659;47.962;21.652;2022-08-21T02:51:39;99536.84;;;20.35;100.00
40930;BME280;26659;47.962;21.652;2022-08-21T02:54:05;99528.44;;;20.32;100.00
40930;BME280;26659;47.962;21.652;2022-08-21T02:56:31;99524.34;;;20.39;100.00
40930;BME280;26659;47.962;21.652;2022-08-21T02:58:56;99518.34;;;20.42;100.00
40930;BME280;26659;47.962;21.652;2022-08-21T03:01:21;99527.34;;;20.38;100.00
40930;BME280;26659;47.962;21.652;2022-08-21T03:03:47;99517.28;;;20.38;100.00
40930;BME280;26659;47.962;21.652;2022-08-21T03:06:18;99517.81;;;20.35;100.00
40930;BME280;26659;47.962;21.652;2022-08-21T03:08:44;99510.78;;;20.29;100.00
40930;BME280;26659;47.962;21.652;2022-08-21T03:11:11;99515.41;;;20.34;100.00
40930;BME280;26659;47.962;21.652;2022-08-21T03:13:37;99519.72;;;20.30;100.00
40930;BME280;26659;47.962;21.652;2022-08-21T03:16:04;99520.56;;;20.30;100.00
40930;BME280;26659;47.962;21.652;2022-08-21T03:18:29;99520.31;;;20.27;100.00
40930;BME280;26659;47.962;21.652;2022-08-21T03:20:55;99532.56;;;20.19;100.00
40930;BME280;26659;47.962;21.652;2022-08-21T03:23:21;99532.56;;;20.19;100.00
40930;BME280;26659;47.962;21.652;2022-08-21T03:25:47;99536.63;;;20.16;100.00
40930;BME280;26659;47.962;21.652;2022-08-21T03:28:18;99533.09;;;20.16;100.00
40930;BME280;26659;47.962;21.652;2022-08-21T03:30:46;99528.47;;;20.06;100.00
40930;BME280;26659;47.962;21.652;2022-08-21T03:33:13;99529.03;;;20.03;100.00
40930;BME280;26659;47.962;21.652;2022-08-21T03:35:39;99534.19;;;20.00;100.00
40930;BME280;26659;47.962;21.652;2022-08-21T03:38:05;99541.53;;;19.89;100.00
40930;BME280;26659;47.962;21.652;2022-08-21T03:40:31;99540.97;;;19.82;100.00
40930;BME280;26659;47.962;21.652;2022-08-21T03:42:56;99540.97;;;19.92;100.00
40930;BME280;26659;47.962;21.652;2022-08-21T03:45:22;99540.97;;;19.92;100.00
40930;BME280;26659;47.962;21.652;2022-08-21T03:48:03;99540.97;;;19.82;100.00
40930;BME280;26659;47.962;21.652;2022-08-21T03:50:32;99540.19;;;19.81;100.00
40930;BME280;26659;47.962;21.652;2022-08-21T03:52:57;99544.25;;;19.94;100.00
40930;BME280;26659;47.962;21.652;2022-08-21T03:55:24;99548.31;;;19.96;100.00
40930;BME280;26659;47.962;21.652;2022-08-21T03:57:50;99551.28;;;19.64;100.00
40930;BME280;26659;47.962;21.652;2022-08-21T04:00:17;99543.97;;;19.70;100.00
40930;BME280;26659;47.962;21.652;2022-08-21T04:02:45;99549.41;;;19.70;100.00
40930;BME280;26659;47.962;21.652;2022-08-21T04:05:12;99552.09;;;19.75;100.00
40930;BME280;26659;47.962;21.652;2022-08-21T04:07:38;99542.91;;;19.76;100.00
40930;BME280;26659;47.962;21.652;2022-08-21T04:10:05;99548.03;;;19.78;100.00
40930;BME280;26659;47.962;21.652;2022-08-21T04:12:31;99556.75;;;19.69;100.00
40930;BME280;26659;47.962;21.652;2022-08-21T04:14:57;99563.19;;;19.53;100.00
40930;BME280;26659;47.962;21.652;2022-08-21T04:17:23;99557.22;;;19.51;100.00
40930;BME280;26659;47.962;21.652;2022-08-21T04:19:48;99560.47;;;19.48;100.00
40930;BME280;26659;47.962;21.652;2022-08-21T04:22:15;99555.34;;;19.52;100.00
40930;BME280;26659;47.962;21.652;2022-08-21T04:24:41;99556.47;;;19.66;100.00
40930;BME280;26659;47.962;21.652;2022-08-21T04:27:06;99563.00;;;19.65;100.00
40930;BME280;26659;47.962;21.652;2022-08-21T04:29:31;99557.25;;;19.71;100.00
40930;BME280;26659;47.962;21.652;2022-08-21T04:31:57;99565.44;;;19.77;100.00
40930;BME280;26659;47.962;21.652;2022-08-21T04:34:22;99555.38;;;19.82;100.00
40930;BME280;26659;47.962;21.652;2022-08-21T04:36:48;99567.31;;;19.91;100.00
40930;BME280;26659;47.962;21.652;2022-08-21T04:39:13;99575.47;;;19.96;100.00
40930;BME280;26659;47.962;21.652;2022-08-21T04:41:39;99577.38;;;19.91;100.00
40930;BME280;26659;47.962;21.652;2022-08-21T04:44:04;99574.66;;;19.96;100.00
40930;BME280;26659;47.962;21.652;2022-08-21T04:46:30;99587.97;;;19.72;100.00
40930;BME280;26659;47.962;21.652;2022-08-21T04:48:55;99588.78;;;19.88;100.00
40930;BME280;26659;47.962;21.652;2022-08-21T04:51:29;99596.38;;;20.06;100.00
40930;BME280;26659;47.962;21.652;2022-08-21T04:54:17;99599.63;;;20.18;100.00
40930;BME280;26659;47.962;21.652;2022-08-21T04:56:53;99600.16;;;20.10;100.00
40930;BME280;26659;47.962;21.652;2022-08-21T04:59:25;99606.44;;;20.16;100.00
40930;BME280;26659;47.962;21.652;2022-08-21T05:01:52;99609.66;;;20.28;100.00
40930;BME280;26659;47.962;21.652;2022-08-21T05:04:23;99618.59;;;20.44;100.00
40930;BME280;26659;47.962;21.652;2022-08-21T05:06:52;99608.59;;;20.50;100.00
40930;BME280;26659;47.962;21.652;2022-08-21T05:09:19;99609.41;;;20.55;100.00
40930;BME280;26659;47.962;21.652;2022-08-21T05:11:46;99607.47;;;20.61;100.00
40930;BME280;26659;47.962;21.652;2022-08-21T05:14:12;99605.81;;;20.70;100.00
40930;BME280;26659;47.962;21.652;2022-08-21T05:16:38;99616.66;;;20.80;100.00
40930;BME280;26659;47.962;21.652;2022-08-21T05:19:08;99619.13;;;20.72;100.00
40930;BME280;26659;47.962;21.652;2022-08-21T05:21:35;99609.34;;;20.71;100.00
40930;BME280;26659;47.962;21.652;2022-08-21T05:24:00;99600.66;;;20.68;100.00
40930;BME280;26659;47.962;21.652;2022-08-21T05:26:26;99598.19;;;20.72;100.00
40930;BME280;26659;47.962;21.652;2022-08-21T05:28:51;99600.94;;;20.67;100.00
40930;BME280;26659;47.962;21.652;2022-08-21T05:31:17;99597.69;;;20.70;100.00
40930;BME280;26659;47.962;21.652;2022-08-21T05:33:42;99601.72;;;20.73;100.00
40930;BME280;26659;47.962;21.652;2022-08-21T05:36:08;99605.50;;;20.82;100.00
40930;BME280;26659;47.962;21.652;2022-08-21T05:38:34;99602.78;;;20.82;100.00
40930;BME280;26659;47.962;21.652;2022-08-21T05:40:59;99609.00;;;20.92;100.00
40930;BME280;26659;47.962;21.652;2022-08-21T05:43:25;99619.31;;;21.01;100.00
40930;BME280;26659;47.962;21.652;2022-08-21T05:45:50;99613.03;;;21.05;100.00
40930;BME280;26659;47.962;21.652;2022-08-21T05:48:18;99618.94;;;21.23;100.00
40930;BME280;26659;47.962;21.652;2022-08-21T05:50:46;99618.34;;;21.31;100.00
40930;BME280;26659;47.962;21.652;2022-08-21T05:53:13;99621.03;;;21.46;100.00
40930;BME280;26659;47.962;21.652;2022-08-21T05:55:39;99630.72;;;21.62;100.00
40930;BME280;26659;47.962;21.652;2022-08-21T05:58:06;99629.50;;;21.84;100.00
40930;BME280;26659;47.962;21.652;2022-08-21T06:00:31;99624.19;;;22.03;100.00
40930;BME280;26659;47.962;21.652;2022-08-21T06:02:57;99623.97;;;22.33;100.00
40930;BME280;26659;47.962;21.652;2022-08-21T06:05:23;99624.38;;;22.46;100.00
40930;BME280;26659;47.962;21.652;2022-08-21T06:07:48;99612.84;;;22.54;100.00
40930;BME280;26659;47.962;21.652;2022-08-21T06:10:14;99610.38;;;22.81;100.00
40930;BME280;26659;47.962;21.652;2022-08-21T06:12:39;99607.69;;;22.76;100.00
40930;BME280;26659;47.962;21.652;2022-08-21T06:15:05;99605.44;;;21.96;100.00
40930;BME280;26659;47.962;21.652;2022-08-21T06:17:30;99607.09;;;21.97;100.00
40930;BME280;26659;47.962;21.652;2022-08-21T06:19:56;99602.16;;;21.99;100.00
40930;BME280;26659;47.962;21.652;2022-08-21T06:22:21;99604.16;;;22.23;100.00
40930;BME280;26659;47.962;21.652;2022-08-21T06:24:47;99601.72;;;22.21;100.00
40930;BME280;26659;47.962;21.652;2022-08-21T06:27:13;99607.66;;;22.28;100.00
40930;BME280;26659;47.962;21.652;2022-08-21T06:29:39;99603.06;;;22.24;100.00
40930;BME280;26659;47.962;21.652;2022-08-21T06:32:05;99600.25;;;22.34;100.00
40930;BME280;26659;47.962;21.652;2022-08-21T06:34:36;99598.50;;;22.43;100.00
40930;BME280;26659;47.962;21.652;2022-08-21T06:37:03;99606.69;;;22.43;100.00
40930;BME280;26659;47.962;21.652;2022-08-21T06:39:29;99608.88;;;22.70;100.00
40930;BME280;26659;47.962;21.652;2022-08-21T06:41:55;99598.13;;;22.55;100.00
40930;BME280;26659;47.962;21.652;2022-08-21T06:44:20;99602.00;;;22.73;100.00
40930;BME280;26659;47.962;21.652;2022-08-21T06:46:46;99595.84;;;22.62;100.00
40930;BME280;26659;47.962;21.652;2022-08-21T06:49:11;99592.25;;;22.43;100.00
40930;BME280;26659;47.962;21.652;2022-08-21T06:51:38;99587.66;;;22.62;100.00
40930;BME280;26659;47.962;21.652;2022-08-21T06:54:03;99582.06;;;22.77;100.00
40930;BME280;26659;47.962;21.652;2022-08-21T06:56:29;99582.28;;;22.81;100.00
40930;BME280;26659;47.962;21.652;2022-08-21T06:58:55;99582.28;;;22.81;100.00
40930;BME280;26659;47.962;21.652;2022-08-21T07:01:23;99582.41;;;22.95;100.00
40930;BME280;26659;47.962;21.652;2022-08-21T07:03:49;99586.44;;;23.02;100.00
40930;BME280;26659;47.962;21.652;2022-08-21T07:06:15;99590.13;;;23.12;100.00
40930;BME280;26659;47.962;21.652;2022-08-21T07:08:40;99600.00;;;23.26;100.00
40930;BME280;26659;47.962;21.652;2022-08-21T07:11:14;99600.78;;;23.32;100.00
40930;BME280;26659;47.962;21.652;2022-08-21T07:13:40;99599.91;;;23.13;100.00
40930;BME280;26659;47.962;21.652;2022-08-21T07:16:06;99598.59;;;23.10;100.00
40930;BME280;26659;47.962;21.652;2022-08-21T07:18:31;99597.06;;;23.23;100.00
40930;BME280;26659;47.962;21.652;2022-08-21T07:20:57;99600.00;;;23.26;100.00
40930;BME280;26659;47.962;21.652;2022-08-21T07:23:28;99608.00;;;23.42;100.00
40930;BME280;26659;47.962;21.652;2022-08-21T07:25:54;99610.44;;;23.43;100.00
40930;BME280;26659;47.962;21.652;2022-08-21T07:28:20;99622.41;;;23.47;100.00
40930;BME280;26659;47.962;21.652;2022-08-21T07:30:50;99622.16;;;23.63;100.00
40930;BME280;26659;47.962;21.652;2022-08-21T07:33:16;99612.63;;;23.22;100.00
40930;BME280;26659;47.962;21.652;2022-08-21T07:35:42;99619.00;;;23.37;100.00
40930;BME280;26659;47.962;21.652;2022-08-21T07:38:07;99618.84;;;23.47;100.00
40930;BME280;26659;47.962;21.652;2022-08-21T07:40:33;99616.44;;;23.64;100.00
40930;BME280;26659;47.962;21.652;2022-08-21T07:42:58;99615.84;;;23.67;100.00
40930;BME280;26659;47.962;21.652;2022-08-21T07:45:24;99605.44;;;23.69;100.00
40930;BME280;26659;47.962;21.652;2022-08-21T07:47:50;99612.25;;;23.72;100.00
40930;BME280;26659;47.962;21.652;2022-08-21T07:50:16;99608.41;;;23.11;100.00
40930;BME280;26659;47.962;21.652;2022-08-21T07:52:43;99608.97;;;23.32;100.00
40930;BME280;26659;47.962;21.652;2022-08-21T07:55:11;99598.63;;;23.29;100.00
40930;BME280;26659;47.962;21.652;2022-08-21T07:57:37;99606.97;;;23.38;100.00
40930;BME280;26659;47.962;21.652;2022-08-21T08:00:04;99603.06;;;23.25;100.00
40930;BME280;26659;47.962;21.652;2022-08-21T08:02:30;99605.34;;;23.37;100.00
40930;BME280;26659;47.962;21.652;2022-08-21T08:05:04;99607.88;;;23.71;100.00
40930;BME280;26659;47.962;21.652;2022-08-21T08:07:30;99604.84;;;23.53;100.00
40930;BME280;26659;47.962;21.652;2022-08-21T08:09:55;99609.38;;;23.82;100.00
40930;BME280;26659;47.962;21.652;2022-08-21T08:12:21;99612.59;;;23.65;100.00
40930;BME280;26659;47.962;21.652;2022-08-21T08:14:47;99607.63;;;23.48;100.00
40930;BME280;26659;47.962;21.652;2022-08-21T08:17:12;99609.47;;;23.34;100.00
40930;BME280;26659;47.962;21.652;2022-08-21T08:19:41;99607.19;;;23.60;100.00
40930;BME280;26659;47.962;21.652;2022-08-21T08:22:16;99617.81;;;23.62;100.00
40930;BME280;26659;47.962;21.652;2022-08-21T08:24:45;99614.06;;;23.58;100.00
40930;BME280;26659;47.962;21.652;2022-08-21T08:27:11;99610.09;;;23.50;100.00
40930;BME280;26659;47.962;21.652;2022-08-21T08:29:37;99605.56;;;23.40;100.00
40930;BME280;26659;47.962;21.652;2022-08-21T08:32:04;99607.25;;;23.36;100.00
40930;BME280;26659;47.962;21.652;2022-08-21T08:34:29;99606.16;;;22.94;100.00
40930;BME280;26659;47.962;21.652;2022-08-21T08:36:55;99598.03;;;23.32;100.00
40930;BME280;26659;47.962;21.652;2022-08-21T08:39:23;99598.09;;;23.27;100.00
40930;BME280;26659;47.962;21.652;2022-08-21T08:41:49;99601.81;;;23.36;100.00
40930;BME280;26659;47.962;21.652;2022-08-21T08:44:17;99611.38;;;23.34;100.00
40930;BME280;26659;47.962;21.652;2022-08-21T08:46:46;99616.19;;;23.42;100.00
40930;BME280;26659;47.962;21.652;2022-08-21T08:51:55;99611.06;;;23.16;100.00
40930;BME280;26659;47.962;21.652;2022-08-21T08:54:29;99615.91;;;23.24;100.00
40930;BME280;26659;47.962;21.652;2022-08-21T08:57:00;99623.41;;;23.14;100.00
40930;BME280;26659;47.962;21.652;2022-08-21T08:59:35;99628.91;;;23.09;100.00
40930;BME280;26659;47.962;21.652;2022-08-21T09:02:04;99634.78;;;22.97;100.00
40930;BME280;26659;47.962;21.652;2022-08-21T09:04:30;99629.78;;;23.04;100.00
40930;BME280;26659;47.962;21.652;2022-08-21T09:10:38;99621.31;;;22.76;100.00
40930;BME280;26659;47.962;21.652;2022-08-21T09:12:39;99617.22;;;22.79;100.00
40930;BME280;26659;47.962;21.652;2022-08-21T09:20:47;99628.31;;;22.88;100.00
40930;BME280;26659;47.962;21.652;2022-08-21T09:26:20;99632.59;;;22.70;100.00
40930;BME280;26659;47.962;21.652;2022-08-21T09:28:51;99641.94;;;22.64;100.00
40930;BME280;26659;47.962;21.652;2022-08-21T09:31:26;99642.31;;;22.52;100.00
40930;BME280;26659;47.962;21.652;2022-08-21T09:34:08;99648.84;;;22.51;100.00
40930;BME280;26659;47.962;21.652;2022-08-21T09:36:44;99648.25;;;22.30;100.00
40930;BME280;26659;47.962;21.652;2022-08-21T09:39:12;99647.66;;;22.33;100.00
40930;BME280;26659;47.962;21.652;2022-08-21T09:41:39;99649.78;;;22.41;100.00
40930;BME280;26659;47.962;21.652;2022-08-21T09:44:07;99649.50;;;22.43;100.00
40930;BME280;26659;47.962;21.652;2022-08-21T09:46:33;99650.69;;;22.31;100.00
40930;BME280;26659;47.962;21.652;2022-08-21T09:49:02;99653.22;;;22.23;100.00
40930;BME280;26659;47.962;21.652;2022-08-21T09:51:30;99650.53;;;22.13;100.00
40930;BME280;26659;47.962;21.652;2022-08-21T09:56:36;99645.78;;;21.94;100.00
40930;BME280;26659;47.962;21.652;2022-08-21T09:59:28;99643.25;;;22.03;100.00
40930;BME280;26659;47.962;21.652;2022-08-21T10:01:57;99646.28;;;22.01;100.00
40930;BME280;26659;47.962;21.652;2022-08-21T10:04:28;99645.47;;;21.96;100.00
40930;BME280;26659;47.962;21.652;2022-08-21T10:06:54;99645.06;;;22.18;100.00
40930;BME280;26659;47.962;21.652;2022-08-21T10:09:30;99649.97;;;22.21;100.00
40930;BME280;26659;47.962;21.652;2022-08-21T10:12:21;99645.63;;;22.15;100.00
40930;BME280;26659;47.962;21.652;2022-08-21T10:18:00;99649.13;;;21.86;100.00
40930;BME280;26659;47.962;21.652;2022-08-21T10:20:44;99643.63;;;21.91;100.00
40930;BME280;26659;47.962;21.652;2022-08-21T10:29:09;99638.97;;;21.92;100.00
40930;BME280;26659;47.962;21.652;2022-08-21T10:34:47;99634.28;;;22.02;100.00
40930;BME280;26659;47.962;21.652;2022-08-21T10:40:34;99635.69;;;21.95;100.00
40930;BME280;26659;47.962;21.652;2022-08-21T10:48:47;99636.81;;;21.88;100.00
40930;BME280;26659;47.962;21.652;2022-08-21T10:56:26;99622.59;;;21.97;100.00
40930;BME280;26659;47.962;21.652;2022-08-21T11:04:52;99599.97;;;21.96;100.00
40930;BME280;26659;47.962;21.652;2022-08-21T11:07:29;99610.38;;;21.89;100.00
40930;BME280;26659;47.962;21.652;2022-08-21T11:09:59;99599.06;;;21.77;100.00
40930;BME280;26659;47.962;21.652;2022-08-21T11:12:52;99598.25;;;21.71;100.00
40930;BME280;26659;47.962;21.652;2022-08-21T11:18:24;99596.31;;;22.16;100.00
40930;BME280;26659;47.962;21.652;2022-08-21T11:23:57;99586.88;;;22.32;100.00
40930;BME280;26659;47.962;21.652;2022-08-21T11:26:38;99593.81;;;21.85;100.00
40930;BME280;26659;47.962;21.652;2022-08-21T11:29:23;99581.03;;;21.86;100.00
40930;BME280;26659;47.962;21.652;2022-08-21T11:40:43;99566.09;;;22.42;100.00
40930;BME280;26659;47.962;21.652;2022-08-21T11:51:20;99566.09;;;22.66;100.00
40930;BME280;26659;47.962;21.652;2022-08-21T11:53:50;99564.19;;;22.42;100.00
40930;BME280;26659;47.962;21.652;2022-08-21T11:56:33;99558.97;;;22.70;100.00
40930;BME280;26659;47.962;21.652;2022-08-21T11:59:11;99537.22;;;22.11;100.00
40930;BME280;26659;47.962;21.652;2022-08-21T12:01:41;99530.91;;;22.16;100.00
40930;BME280;26659;47.962;21.652;2022-08-21T12:04:28;99531.41;;;22.71;100.00
40930;BME280;26659;47.962;21.652;2022-08-21T12:06:54;99522.19;;;23.10;100.00
40930;BME280;26659;47.962;21.652;2022-08-21T12:12:01;99536.78;;;23.19;100.00
40930;BME280;26659;47.962;21.652;2022-08-21T12:17:37;99507.66;;;23.85;100.00
40930;BME280;26659;47.962;21.652;2022-08-21T12:22:47;99505.78;;;24.13;100.00
40930;BME280;26659;47.962;21.652;2022-08-21T12:25:16;99497.00;;;24.30;100.00
40930;BME280;26659;47.962;21.652;2022-08-21T12:27:47;99498.63;;;24.31;100.00
40930;BME280;26659;47.962;21.652;2022-08-21T12:30:35;99499.75;;;24.71;100.00
40930;BME280;26659;47.962;21.652;2022-08-21T12:33:24;99498.03;;;24.76;100.00
40930;BME280;26659;47.962;21.652;2022-08-21T12:35:53;99492.84;;;24.88;100.00
40930;BME280;26659;47.962;21.652;2022-08-21T12:38:33;99494.81;;;25.10;100.00
40930;BME280;26659;47.962;21.652;2022-08-21T12:41:10;99501.31;;;25.14;100.00
40930;BME280;26659;47.962;21.652;2022-08-21T12:43:43;99488.41;;;24.78;100.00
40930;BME280;26659;47.962;21.652;2022-08-21T12:46:17;99483.69;;;25.06;100.00
40930;BME280;26659;47.962;21.652;2022-08-21T12:48:49;99483.50;;;25.39;100.00
40930;BME280;26659;47.962;21.652;2022-08-21T12:53:48;99488.03;;;25.66;100.00
40930;BME280;26659;47.962;21.652;2022-08-21T12:56:16;99494.31;;;25.66;100.00
40930;BME280;26659;47.962;21.652;2022-08-21T12:58:49;99488.13;;;25.16;100.00
40930;BME280;26659;47.962;21.652;2022-08-21T13:01:25;99486.72;;;25.41;100.00
40930;BME280;26659;47.962;21.652;2022-08-21T13:03:54;99495.34;;;25.34;100.00
40930;BME280;26659;47.962;21.652;2022-08-21T13:06:22;99491.16;;;25.51;100.00
40930;BME280;26659;47.962;21.652;2022-08-21T13:09:03;99488.38;;;25.73;100.00
40930;BME280;26659;47.962;21.652;2022-08-21T13:11:29;99484.75;;;26.09;99.90
40930;BME280;26659;47.962;21.652;2022-08-21T13:13:56;99481.56;;;25.62;100.00
40930;BME280;26659;47.962;21.652;2022-08-21T13:16:26;99477.69;;;25.85;100.00
40930;BME280;26659;47.962;21.652;2022-08-21T13:19:04;99476.72;;;26.21;100.00
40930;BME280;26659;47.962;21.652;2022-08-21T13:21:41;99473.75;;;26.40;100.00
40930;BME280;26659;47.962;21.652;2022-08-21T13:26:39;99469.88;;;26.01;100.00
40930;BME280;26659;47.962;21.652;2022-08-21T13:29:10;99465.50;;;25.47;100.00
40930;BME280;26659;47.962;21.652;2022-08-21T13:31:37;99462.53;;;25.88;100.00
40930;BME280;26659;47.962;21.652;2022-08-21T13:34:05;99463.63;;;25.78;98.86
40930;BME280;26659;47.962;21.652;2022-08-21T13:36:35;99466.88;;;25.80;100.00
40930;BME280;26659;47.962;21.652;2022-08-21T13:39:04;99468.59;;;25.76;100.00
40930;BME280;26659;47.962;21.652;2022-08-21T13:41:35;99462.44;;;26.33;100.00
40930;BME280;26659;47.962;21.652;2022-08-21T13:44:21;99473.38;;;26.81;93.32
40930;BME280;26659;47.962;21.652;2022-08-21T13:46:48;99470.97;;;26.88;94.73
40930;BME280;26659;47.962;21.652;2022-08-21T13:49:18;99476.00;;;26.95;89.26
40930;BME280;26659;47.962;21.652;2022-08-21T13:51:44;99469.34;;;26.79;93.27
40930;BME280;26659;47.962;21.652;2022-08-21T13:54:38;99472.03;;;26.61;93.31
40930;BME280;26659;47.962;21.652;2022-08-21T13:57:19;99466.53;;;26.53;88.69
40930;BME280;26659;47.962;21.652;2022-08-21T13:59:45;99466.28;;;26.98;90.32
40930;BME280;26659;47.962;21.652;2022-08-21T14:02:16;99471.56;;;26.59;93.18
40930;BME280;26659;47.962;21.652;2022-08-21T14:04:59;99467.44;;;26.39;93.93
40930;BME280;26659;47.962;21.652;2022-08-21T14:07:35;99465.38;;;26.45;94.25
40930;BME280;26659;47.962;21.652;2022-08-21T14:10:07;99468.31;;;26.57;90.23
40930;BME280;26659;47.962;21.652;2022-08-21T14:15:15;99468.50;;;26.61;90.98
40930;BME280;26659;47.962;21.652;2022-08-21T14:17:42;99457.47;;;26.04;100.00
40930;BME280;26659;47.962;21.652;2022-08-21T14:20:30;99465.63;;;26.26;99.96